Detall de PIREP

Printer-friendly versionPDF version

[2015/03/15 09:18:00]
Flight IATA:CT3250
Pilot Number:012
Company ICAO:CAT
Aircraft Type:MD11/E
PAX:248
Aircraft Registration:PAX
Departing Airport: LEPA
Destination Airport: EYVI
Alternate Airport:EYKA
Online: VATSIM
Route:MEROS UN853 LUMAS/N0486F360 UQ206 NOSTA/N0488F380 UM985 ABN UT102 NESTI UM985 TAGIP UT876 OGEPI UM726 BRENO/N0488F390 UM726 KOGOL UN871 DOKEL P733 EBOGU N858 IRKAL
Flight Level:F390
No Slew and time accel
No pause
Crash detect
Detect pilot in Cockpit between each 30 and 45 minutes
09:18 Zero fuel Weight: 376656 Lbs, Fuel Weight: 68013 Lbs
09:18 VATSIM:LEPA 150900Z 00000KT 9999 FEW028 11/08 Q1018 NOSIG
09:18 VATSIM:EYVI 150850Z 10007KT 070V130 CAVOK 04/00 Q1041 R20/0///95 NOSIG
09:18 Parking Brakes off
09:25 Take-off
09:25 Take off Weight: 443274 Lbs
09:25 Wind: 000º @ 000 Knots Heading: 239º
09:25 POS N39º 33´ 15´´ E002º 43´ 32´´
09:25 Gear Up: 193 Knots
09:25 Flaps:3 at 194 Knots
09:26 Flaps:2 at 184 Knots
09:26 Flaps:3 at 185 Knots
09:26 Flaps:2 at 185 Knots
09:26 Flaps:1 at 186 Knots
09:26 Flaps:0 at 193 Knots
09:40 Wind:263º@014 Knots Heading: 029º Ground Speed: 466 Knots Altitude 33307 ft
09:55 Wind:326º@010 Knots Heading: 045º Ground Speed: 459 Knots Altitude 38106 ft
10:10 Wind:228º@006 Knots Heading: 047º Ground Speed: 465 Knots Altitude 38051 ft
10:25 Wind:204º@011 Knots Heading: 041º Ground Speed: 481 Knots Altitude 38211 ft
10:40 Wind:198º@006 Knots Heading: 038º Ground Speed: 475 Knots Altitude 38261 ft
10:55 Wind:090º@005 Knots Heading: 089º Ground Speed: 459 Knots Altitude 38218 ft
11:10 Wind:080º@016 Knots Heading: 028º Ground Speed: 456 Knots Altitude 38300 ft
11:17 TOC
11:17 Fuel Weight: 33946 Lb
11:25 Wind:092º@019 Knots Heading: 044º Ground Speed: 452 Knots Altitude 39409 ft
11:40 Wind:104º@025 Knots Heading: 055º Ground Speed: 449 Knots Altitude 39573 ft
11:55 Wind:107º@031 Knots Heading: 058º Ground Speed: 434 Knots Altitude 39662 ft
12:07 TOD
12:07 Fuel Weight: 22370 Lb
12:10 Wind:095º@047 Knots Heading: 060º Ground Speed: 418 Knots Altitude 33946 ft
12:25 Wind:124º@027 Knots Heading: 080º Ground Speed: 250 Knots Altitude 9908 ft
12:27 Flaps:1 at 220 Knots
12:28 Flaps:2 at 210 Knots
12:28 Flaps:3 at 210 Knots
12:31 Flaps:4 at 211 Knots
12:31 Flaps:3 at 211 Knots
12:31 Flaps:4 at 211 Knots
12:31 Flaps:5 at 211 Knots
12:31 Flaps:6 at 211 Knots
12:31 Gear Down: 187 Knots
12:32 Flaps:7 at 156 Knots
12:36 TouchDown:Rate -130 ft/min Speed: 147 Knots
12:36 VATSIM:EYVI 151220Z 11004KT 050V170 CAVOK 08/01 Q1041 R20/0///95 NOSIG
12:36 Land
12:36 Wind:100º@006 Knots
12:36 Heading: 023º
12:36 Flight Duration: 03:11
12:36 Landing Weight: 394382 Lbs
12:36 POS N54º 38´ 16´´ E025º 17´ 17´´
12:38 Parking brakes on
12:38 Block to Block Duration: 03:20
12:38 Final Fuel: 17484 Lbls
12:38 Spent Fuel: 50529 Lbls
12:38 Flight Length: 1350 NM
12:38 TOD Land Length: 140 NM

Exportar CSV

Powered by Drupal - Modified by Danger4k